createdAt,value
2017-05-07T00:01:05.888Z,33.26
2017-05-07T00:03:34.836Z,36.54
2017-05-07T00:06:03.747Z,36.42
2017-05-07T00:08:32.788Z,29.72
2017-05-07T00:11:01.730Z,30.06
2017-05-07T00:13:30.645Z,35.26
2017-05-07T00:16:00.396Z,36.46
2017-05-07T00:18:30.131Z,32.70
2017-05-07T00:20:59.047Z,35.14
2017-05-07T00:23:28.003Z,39.58
2017-05-07T00:25:56.929Z,36.18
2017-05-07T00:28:25.851Z,33.74
2017-05-07T00:30:55.531Z,31.78
2017-05-07T00:33:24.455Z,36.08
2017-05-07T00:35:54.149Z,30.72
2017-05-07T00:38:23.789Z,41.50
2017-05-07T00:40:52.723Z,34.34
2017-05-07T00:43:21.677Z,33.66
2017-05-07T00:45:50.595Z,35.90
2017-05-07T00:48:19.499Z,37.54
2017-05-07T00:50:48.462Z,39.36
2017-05-07T00:53:18.112Z,34.70
2017-05-07T00:55:47.063Z,41.94
2017-05-07T00:58:16.711Z,38.84
2017-05-07T01:00:45.638Z,35.02
2017-05-07T01:03:14.614Z,35.64
2017-05-07T01:05:44.314Z,34.40
2017-05-07T01:08:13.248Z,36.46
2017-05-07T01:10:42.924Z,34.56
2017-05-07T01:13:11.822Z,34.84
2017-05-07T01:15:40.731Z,38.44
2017-05-07T01:18:09.709Z,40.04
2017-05-07T01:20:38.617Z,37.26
2017-05-07T01:23:07.560Z,38.14
2017-05-07T01:25:37.215Z,39.48
2017-05-07T01:28:06.116Z,37.94
2017-05-07T01:30:35.773Z,40.66
2017-05-07T01:33:04.754Z,41.24
2017-05-07T01:35:33.677Z,43.96
2017-05-07T01:38:02.632Z,42.52
2017-05-07T01:40:31.527Z,40.40
2017-05-07T01:43:00.438Z,43.02
2017-05-07T01:45:29.383Z,36.98
2017-05-07T01:47:59.021Z,42.30
2017-05-07T01:50:27.988Z,39.36
2017-05-07T01:52:56.919Z,40.42
2017-05-07T01:55:25.813Z,39.04
2017-05-07T01:57:54.843Z,44.06
2017-05-07T02:00:23.793Z,40.34
2017-05-07T02:02:52.691Z,39.00
2017-05-07T02:05:21.623Z,43.80
2017-05-07T02:07:50.567Z,43.92
2017-05-07T02:10:19.494Z,43.86
2017-05-07T02:12:48.457Z,44.42
2017-05-07T02:15:17.366Z,40.88
2017-05-07T02:17:46.275Z,41.30
2017-05-07T02:20:15.223Z,39.62
2017-05-07T02:22:44.131Z,39.86
2017-05-07T02:25:13.030Z,43.98
2017-05-07T02:27:41.968Z,43.94
2017-05-07T02:30:12.287Z,43.10
2017-05-07T02:32:41.965Z,39.08
2017-05-07T02:35:10.905Z,45.92
2017-05-07T02:37:39.770Z,40.46
2017-05-07T02:40:09.514Z,41.80
2017-05-07T02:42:38.438Z,39.84
2017-05-07T02:45:07.370Z,41.82
2017-05-07T02:47:37.054Z,41.86
2017-05-07T02:50:05.984Z,43.44
2017-05-07T02:52:34.906Z,38.94
2017-05-07T02:55:03.819Z,41.02
2017-05-07T02:57:33.478Z,40.60
2017-05-07T03:00:02.459Z,45.14
2017-05-07T03:02:31.352Z,41.38
2017-05-07T03:05:00.253Z,42.52
2017-05-07T03:07:29.223Z,39.10
2017-05-07T03:09:58.139Z,43.46
2017-05-07T03:12:27.041Z,46.64
2017-05-07T03:14:56.085Z,44.00
2017-05-07T03:17:24.962Z,48.78
2017-05-07T03:19:54.606Z,47.06
2017-05-07T03:22:23.543Z,46.44
2017-05-07T03:24:52.994Z,40.08
2017-05-07T03:27:21.898Z,40.30
2017-05-07T03:29:50.910Z,45.12
2017-05-07T03:32:19.814Z,40.02
2017-05-07T03:34:48.738Z,37.42
2017-05-07T03:37:18.406Z,45.84
2017-05-07T03:39:47.314Z,42.02
2017-05-07T03:42:16.247Z,41.90
2017-05-07T03:44:45.890Z,39.46
2017-05-07T03:47:14.810Z,41.68
2017-05-07T03:49:44.466Z,40.00
2017-05-07T03:52:14.146Z,43.24
2017-05-07T03:54:43.081Z,47.76
2017-05-07T03:57:12.013Z,46.72
2017-05-07T03:59:40.935Z,47.04
2017-05-07T04:02:09.856Z,44.12
2017-05-07T04:04:38.778Z,45.44
2017-05-07T04:07:07.713Z,40.68
2017-05-07T04:09:37.386Z,47.16
2017-05-07T04:12:06.313Z,43.24
2017-05-07T04:14:36.003Z,47.60
2017-05-07T04:17:04.914Z,40.08
2017-05-07T04:19:34.582Z,37.08
2017-05-07T04:22:03.558Z,37.92
2017-05-07T04:24:33.507Z,39.36
2017-05-07T04:27:02.544Z,35.84
2017-05-07T04:29:31.537Z,38.18
2017-05-07T04:32:00.428Z,40.58
2017-05-07T04:34:30.122Z,50.58
2017-05-07T04:36:59.805Z,46.52
2017-05-07T04:39:28.702Z,41.70
2017-05-07T04:41:57.730Z,45.80
2017-05-07T04:44:27.386Z,42.38
2017-05-07T04:46:56.321Z,43.70
2017-05-07T04:49:25.970Z,47.70
2017-05-07T04:51:54.878Z,42.74
2017-05-07T04:54:23.806Z,50.00
2017-05-07T04:56:52.712Z,43.88
2017-05-07T04:59:21.621Z,48.00
2017-05-07T05:01:51.300Z,44.56
2017-05-07T05:04:20.215Z,46.56
2017-05-07T05:06:49.897Z,48.16
2017-05-07T05:09:18.926Z,41.66
2017-05-07T05:11:48.582Z,49.72
2017-05-07T05:14:17.490Z,41.32
2017-05-07T05:16:46.421Z,38.48
2017-05-07T05:19:33.779Z,44.64
2017-05-07T05:22:05.635Z,46.70
2017-05-07T05:24:57.726Z,48.24
2017-05-07T05:27:44.483Z,42.68
2017-05-07T05:30:27.161Z,55.04
2017-05-07T05:32:56.093Z,58.00
2017-05-07T05:35:25.034Z,61.18
2017-05-07T05:37:53.994Z,55.88
2017-05-07T05:40:22.958Z,56.72
2017-05-07T05:42:52.850Z,50.92
2017-05-07T05:45:22.534Z,63.64
2017-05-07T05:47:52.395Z,68.96
2017-05-07T05:50:21.401Z,65.66
2017-05-07T05:52:51.179Z,68.32
2017-05-07T05:55:20.622Z,64.04
2017-05-07T05:57:50.327Z,64.32
2017-05-07T06:00:20.021Z,69.88
2017-05-07T06:02:49.729Z,64.00
2017-05-07T06:05:19.515Z,63.84
2017-05-07T06:07:49.264Z,66.24
2017-05-07T06:10:19.158Z,57.18
2017-05-07T06:12:49.349Z,77.06
2017-05-07T06:15:18.353Z,69.00
2017-05-07T06:17:47.305Z,67.88
2017-05-07T06:20:16.923Z,62.76
2017-05-07T06:22:45.903Z,59.52
2017-05-07T06:25:14.845Z,64.86
2017-05-07T06:27:44.460Z,61.48
2017-05-07T06:30:13.992Z,59.94
2017-05-07T06:32:44.020Z,58.90
2017-05-07T06:35:13.783Z,60.38
2017-05-07T06:37:43.554Z,66.50
2017-05-07T06:40:13.373Z,65.72
2017-05-07T06:42:42.555Z,65.08
2017-05-07T06:45:11.891Z,64.06
2017-05-07T06:47:41.194Z,61.14
2017-05-07T06:50:10.926Z,62.52
2017-05-07T06:52:40.049Z,58.52
2017-05-07T06:55:09.447Z,67.28
2017-05-07T06:57:38.963Z,62.90
2017-05-07T07:00:08.426Z,65.56
2017-05-07T07:02:37.618Z,58.44
2017-05-07T07:05:07.721Z,67.66
2017-05-07T07:07:37.036Z,67.94
2017-05-07T07:10:06.288Z,70.92
2017-05-07T07:12:36.428Z,63.96
2017-05-07T07:15:06.072Z,58.10
2017-05-07T07:17:36.313Z,55.50
2017-05-07T07:20:06.509Z,60.28
2017-05-07T07:22:35.810Z,55.80
2017-05-07T07:25:05.514Z,54.14
2017-05-07T07:27:37.314Z,50.70
2017-05-07T07:30:07.192Z,55.78
2017-05-07T07:32:37.099Z,53.48
2017-05-07T07:35:06.423Z,58.72
2017-05-07T07:37:35.879Z,53.56
2017-05-07T07:40:05.714Z,55.86
2017-05-07T07:42:35.317Z,54.50
2017-05-07T07:45:05.116Z,54.54
2017-05-07T07:47:35.194Z,60.26
2017-05-07T07:50:04.402Z,54.38
2017-05-07T07:52:34.103Z,55.48
2017-05-07T07:55:03.655Z,45.44
2017-05-07T07:57:33.073Z,50.50
2017-05-07T08:00:02.946Z,57.10
2017-05-07T08:02:32.211Z,61.60
2017-05-07T08:05:01.965Z,54.06
2017-05-07T08:07:31.096Z,59.66
2017-05-07T08:10:00.367Z,48.36
2017-05-07T08:12:29.655Z,61.10
2017-05-07T08:14:59.233Z,56.20
2017-05-07T08:17:29.403Z,54.96
2017-05-07T08:19:58.573Z,62.50
2017-05-07T08:22:27.688Z,49.46
2017-05-07T08:24:57.021Z,53.36
2017-05-07T08:27:26.322Z,51.74
2017-05-07T08:45:32.739Z,56.50
2017-05-07T08:48:03.055Z,55.14
2017-05-07T08:50:33.419Z,54.04
2017-05-07T08:53:03.007Z,58.72
2017-05-07T08:55:32.172Z,59.26
2017-05-07T08:58:01.647Z,52.28
2017-05-07T09:00:31.479Z,55.80
2017-05-07T09:03:05.165Z,53.46
2017-05-07T09:05:34.424Z,56.54
2017-05-07T09:08:03.649Z,56.02
2017-05-07T09:10:34.247Z,48.48
2017-05-07T09:16:08.828Z,52.66
2017-05-07T09:18:39.511Z,50.18
2017-05-07T09:21:09.147Z,50.02
2017-05-07T09:23:38.862Z,48.22
2017-05-07T09:26:08.543Z,49.34
2017-05-07T09:28:38.222Z,50.64
2017-05-07T09:31:07.617Z,50.30
2017-05-07T09:33:37.148Z,50.66
2017-05-07T09:36:06.178Z,49.68
2017-05-07T09:38:35.272Z,52.36
2017-05-07T09:41:04.341Z,51.36
2017-05-07T09:43:33.723Z,49.56
2017-05-07T09:46:09.006Z,52.86
2017-05-07T09:48:39.091Z,53.74
2017-05-07T09:51:13.693Z,52.08
2017-05-07T09:53:43.554Z,53.16
2017-05-07T09:56:12.503Z,55.84
2017-05-07T09:58:41.407Z,52.50
2017-05-07T10:01:10.326Z,53.84
2017-05-07T10:03:39.307Z,52.84
2017-05-07T10:06:08.227Z,50.88
2017-05-07T10:08:37.675Z,46.52
2017-05-07T10:11:06.626Z,49.24
2017-05-07T10:13:35.649Z,51.62
2017-05-07T10:16:05.359Z,53.66
2017-05-07T10:18:34.307Z,51.46
2017-05-07T10:21:03.226Z,47.06
2017-05-07T10:23:32.898Z,54.62
2017-05-07T10:26:01.806Z,48.46
2017-05-07T10:28:30.740Z,48.26
2017-05-07T10:30:59.828Z,44.68
2017-05-07T10:33:28.746Z,48.34
2017-05-07T10:35:57.675Z,46.18
2017-05-07T10:38:26.653Z,44.54
2017-05-07T10:40:55.585Z,44.12
2017-05-07T10:43:25.267Z,44.74
2017-05-07T10:45:54.296Z,44.34
2017-05-07T10:48:23.956Z,44.98
2017-05-07T10:50:52.864Z,57.64
2017-05-07T10:53:21.807Z,49.94
2017-05-07T10:55:50.810Z,46.72
2017-05-07T10:58:20.450Z,48.64
2017-05-07T11:00:49.368Z,47.94
2017-05-07T11:03:18.411Z,46.10
2017-05-07T11:05:47.385Z,47.56
2017-05-07T11:08:16.353Z,43.22
2017-05-07T11:10:45.304Z,44.62
2017-05-07T11:13:14.349Z,44.46
2017-05-07T11:15:43.417Z,45.44
2017-05-07T11:18:12.353Z,45.86
2017-05-07T11:20:42.034Z,45.78
2017-05-07T11:23:11.703Z,42.20
2017-05-07T11:25:40.605Z,46.52
2017-05-07T11:28:09.574Z,46.34
2017-05-07T11:30:38.526Z,41.54
2017-05-07T11:33:08.206Z,46.46
2017-05-07T11:35:37.146Z,49.46
2017-05-07T11:38:06.060Z,47.26
2017-05-07T11:40:35.065Z,46.98
2017-05-07T11:43:04.131Z,43.92
2017-05-07T11:45:33.030Z,44.54
2017-05-07T11:48:01.983Z,44.08
2017-05-07T11:50:31.638Z,38.90
2017-05-07T11:53:00.553Z,43.80
2017-05-07T11:55:29.485Z,44.78
2017-05-07T11:57:58.414Z,38.40
2017-05-07T12:00:27.856Z,43.88
2017-05-07T12:02:56.822Z,41.60
2017-05-07T12:05:25.769Z,42.88
2017-05-07T12:07:54.702Z,37.10
2017-05-07T12:10:23.623Z,39.84
2017-05-07T12:12:53.295Z,42.42
2017-05-07T12:15:22.239Z,45.10
2017-05-07T12:17:51.157Z,43.44
2017-05-07T12:20:20.077Z,41.12
2017-05-07T12:22:48.959Z,44.48
2017-05-07T12:25:17.912Z,45.40
2017-05-07T12:27:46.829Z,42.70
2017-05-07T12:30:15.732Z,37.52
2017-05-07T12:32:44.636Z,43.10
2017-05-07T12:35:13.623Z,44.50
2017-05-07T12:37:42.539Z,40.96
2017-05-07T12:40:11.473Z,43.42
2017-05-07T12:42:40.375Z,40.88
2017-05-07T12:45:09.370Z,41.40
2017-05-07T12:47:38.308Z,38.52
2017-05-07T12:50:07.979Z,42.80
2017-05-07T12:52:37.548Z,38.66
2017-05-07T12:55:06.459Z,43.28
2017-05-07T12:57:35.480Z,36.22
2017-05-07T13:00:05.150Z,32.86
2017-05-07T13:02:34.053Z,36.80
2017-05-07T13:05:03.351Z,35.20
2017-05-07T13:07:36.659Z,32.78
2017-05-07T13:10:09.362Z,33.86
2017-05-07T13:12:39.078Z,37.30
2017-05-07T13:15:08.684Z,32.32
2017-05-07T13:17:38.412Z,27.22
2017-05-07T13:20:10.450Z,30.52
2017-05-07T13:22:39.830Z,30.28
2017-05-07T13:25:10.404Z,31.02
2017-05-07T13:27:39.686Z,28.54
2017-05-07T13:30:10.452Z,26.26
2017-05-07T13:32:39.945Z,29.02
2017-05-07T13:35:10.613Z,28.42
2017-05-07T13:37:40.206Z,25.88
2017-05-07T13:40:10.424Z,26.00
2017-05-07T13:42:39.660Z,25.18
2017-05-07T13:45:10.861Z,24.62
2017-05-07T13:47:41.016Z,22.94
2017-05-07T13:50:10.313Z,25.58
2017-05-07T13:52:39.523Z,27.54
2017-05-07T13:55:09.642Z,29.02
2017-05-07T13:57:39.458Z,27.96
2017-05-07T14:00:09.819Z,27.68
2017-05-07T14:02:39.634Z,24.92
2017-05-07T14:05:12.590Z,26.78
2017-05-07T14:07:41.722Z,34.16
2017-05-07T14:10:11.850Z,30.70
2017-05-07T14:12:41.292Z,28.76
2017-05-07T14:15:10.433Z,30.58
2017-05-07T14:17:39.410Z,31.94
2017-05-07T14:20:08.946Z,34.02
2017-05-07T14:22:37.882Z,30.10
2017-05-07T14:25:07.559Z,29.12
2017-05-07T14:27:36.562Z,29.76
2017-05-07T14:30:05.491Z,27.34
2017-05-07T14:32:35.130Z,32.54
2017-05-07T14:35:04.106Z,29.78
2017-05-07T14:37:33.061Z,30.06
2017-05-07T14:40:02.750Z,30.92
2017-05-07T14:42:31.680Z,28.12
2017-05-07T14:45:01.341Z,31.14
2017-05-07T14:47:31.175Z,52.50
2017-05-07T14:50:00.087Z,26.44
2017-05-07T14:52:29.803Z,37.14
2017-05-07T14:54:58.810Z,34.06
2017-05-07T14:57:28.974Z,25.62
2017-05-07T15:00:02.788Z,24.28
2017-05-07T15:02:31.723Z,25.50
2017-05-07T15:05:00.733Z,27.08
2017-05-07T15:07:29.726Z,25.06
2017-05-07T15:09:58.686Z,25.12
2017-05-07T15:12:28.343Z,24.58
2017-05-07T15:14:57.310Z,27.70
2017-05-07T15:17:26.246Z,24.62
2017-05-07T15:19:56.052Z,25.60
2017-05-07T15:22:24.985Z,25.02
2017-05-07T15:24:54.661Z,24.40
2017-05-07T15:27:23.602Z,27.36
2017-05-07T15:29:52.627Z,24.96
2017-05-07T15:32:21.573Z,26.82
2017-05-07T15:34:50.519Z,25.70
2017-05-07T15:37:19.516Z,26.70
2017-05-07T15:39:48.464Z,24.02
2017-05-07T15:42:17.416Z,23.96
2017-05-07T15:44:46.425Z,22.26
2017-05-07T15:47:16.085Z,20.88
2017-05-07T15:49:45.077Z,22.64
2017-05-07T15:52:14.074Z,20.56
2017-05-07T15:54:43.015Z,22.54
2017-05-07T15:57:13.246Z,21.18
2017-05-07T15:59:42.170Z,19.36
2017-05-07T16:02:11.134Z,22.30
2017-05-07T16:04:40.813Z,20.28
2017-05-07T16:07:10.511Z,21.70
2017-05-07T16:09:39.507Z,21.94
2017-05-07T16:12:08.468Z,21.66
2017-05-07T16:14:37.374Z,21.82
2017-05-07T16:20:23.458Z,19.00
2017-05-07T16:23:14.210Z,24.62
2017-05-07T16:25:57.827Z,20.64
2017-05-07T16:28:48.582Z,20.58
2017-05-07T16:31:19.019Z,22.24
2017-05-07T16:33:47.970Z,22.22
2017-05-07T16:36:16.968Z,21.58
2017-05-07T16:38:46.628Z,20.14
2017-05-07T16:41:15.593Z,19.38
2017-05-07T16:43:44.529Z,20.68
2017-05-07T16:46:13.466Z,20.14
2017-05-07T16:48:43.148Z,22.24
2017-05-07T16:51:12.099Z,20.84
2017-05-07T16:53:41.026Z,18.44
2017-05-07T16:56:10.005Z,20.20
2017-05-07T16:58:38.967Z,19.74
2017-05-07T17:01:07.918Z,18.62
2017-05-07T17:03:42.553Z,18.60
2017-05-07T17:06:17.241Z,18.30
2017-05-07T17:08:46.210Z,17.22
2017-05-07T17:11:15.870Z,18.32
2017-05-07T17:13:44.819Z,18.14
2017-05-07T17:16:14.444Z,16.94
2017-05-07T17:18:43.362Z,18.48
2017-05-07T17:21:12.325Z,20.50
2017-05-07T17:23:41.346Z,20.14
2017-05-07T17:26:10.303Z,19.70
2017-05-07T17:28:40.033Z,17.06
2017-05-07T17:31:08.988Z,19.34
2017-05-07T17:33:37.939Z,19.96
2017-05-07T17:36:06.875Z,19.50
2017-05-07T17:38:35.814Z,20.48
2017-05-07T17:41:04.752Z,19.86
2017-05-07T17:43:33.681Z,18.56
2017-05-07T17:46:02.647Z,21.10
2017-05-07T17:48:31.603Z,20.80
2017-05-07T17:51:01.357Z,19.06
2017-05-07T17:53:30.658Z,21.80
2017-05-07T17:56:00.706Z,18.82
2017-05-07T17:58:29.619Z,20.78
2017-05-07T18:00:59.295Z,18.46
2017-05-07T18:03:28.233Z,20.24
2017-05-07T18:05:57.339Z,20.16
2017-05-07T18:08:26.960Z,18.60
2017-05-07T18:10:55.903Z,19.04
2017-05-07T18:13:25.838Z,16.16
2017-05-07T18:15:54.759Z,18.28
2017-05-07T18:18:23.679Z,17.24
2017-05-07T18:20:52.664Z,19.80
2017-05-07T18:23:21.605Z,19.84
2017-05-07T18:25:51.303Z,24.50
2017-05-07T18:28:20.491Z,16.08
2017-05-07T18:30:49.457Z,16.32
2017-05-07T18:33:18.411Z,17.66
2017-05-07T18:35:47.326Z,16.20
2017-05-07T18:38:16.258Z,17.14
2017-05-07T18:40:45.942Z,17.02
2017-05-07T18:43:14.863Z,16.70
2017-05-07T18:45:43.960Z,18.34
2017-05-07T18:48:13.872Z,18.14
2017-05-07T18:50:42.847Z,21.84
2017-05-07T18:53:12.241Z,20.26
2017-05-07T18:55:41.187Z,17.56
2017-05-07T18:58:10.115Z,20.70
2017-05-07T19:00:39.219Z,17.80
2017-05-07T19:03:08.179Z,17.54
2017-05-07T19:05:37.890Z,17.20
2017-05-07T19:08:06.804Z,17.78
2017-05-07T19:10:35.827Z,16.30
2017-05-07T19:13:05.695Z,17.88
2017-05-07T19:15:34.683Z,18.06
2017-05-07T19:18:03.617Z,17.80
2017-05-07T19:20:32.587Z,15.74
2017-05-07T19:23:01.588Z,18.78
2017-05-07T19:25:30.518Z,18.36
2017-05-07T19:28:00.303Z,18.40
2017-05-07T19:30:29.256Z,15.66
2017-05-07T19:32:58.191Z,17.40
2017-05-07T19:35:27.235Z,16.56
2017-05-07T19:37:56.920Z,17.62
2017-05-07T19:40:26.604Z,15.82
2017-05-07T19:42:55.548Z,17.00
2017-05-07T19:45:25.426Z,16.72
2017-05-07T19:47:54.415Z,16.80
2017-05-07T19:50:23.348Z,19.26
2017-05-07T19:52:52.346Z,18.98
2017-05-07T19:55:21.281Z,17.38
2017-05-07T19:57:50.325Z,19.16
2017-05-07T20:00:21.032Z,17.12
2017-05-07T20:02:56.460Z,17.84
2017-05-07T20:05:26.193Z,23.98
2017-05-07T20:07:56.783Z,16.16
2017-05-07T20:10:25.919Z,15.76
2017-05-07T20:12:54.813Z,16.88
2017-05-07T20:15:23.719Z,16.98
2017-05-07T20:17:52.670Z,18.02
2017-05-07T20:20:22.336Z,16.66
2017-05-07T20:22:51.347Z,15.74
2017-05-07T20:25:20.299Z,17.52
2017-05-07T20:27:49.238Z,15.26
2017-05-07T20:30:18.223Z,16.48
2017-05-07T20:32:47.183Z,16.02
2017-05-07T20:35:16.133Z,18.30
2017-05-07T20:37:45.810Z,16.62
2017-05-07T20:40:14.780Z,16.12
2017-05-07T20:42:43.757Z,17.36
2017-05-07T20:45:12.719Z,14.46
2017-05-07T20:47:41.630Z,15.80
2017-05-07T20:50:11.302Z,16.58
2017-05-07T20:52:40.250Z,14.88
2017-05-07T20:55:09.197Z,16.86
2017-05-07T20:57:38.960Z,16.16
2017-05-07T21:00:07.875Z,15.22
2017-05-07T21:02:36.864Z,13.72
2017-05-07T21:05:06.540Z,16.40
2017-05-07T21:07:35.486Z,15.26
2017-05-07T21:10:04.407Z,13.90
2017-05-07T21:12:33.355Z,13.84
2017-05-07T21:15:02.256Z,13.62
2017-05-07T21:17:31.289Z,13.10
2017-05-07T21:20:00.281Z,12.78
2017-05-07T21:22:29.327Z,13.24
2017-05-07T21:24:58.986Z,12.74
2017-05-07T21:27:28.028Z,12.74
2017-05-07T21:29:56.925Z,13.38
2017-05-07T21:32:25.827Z,13.28
2017-05-07T21:34:54.750Z,12.72
2017-05-07T21:37:23.751Z,10.62
2017-05-07T21:39:52.661Z,10.98
2017-05-07T21:42:22.318Z,10.86
2017-05-07T21:44:51.299Z,11.92
2017-05-07T21:47:20.942Z,13.80
2017-05-07T21:49:49.847Z,13.12
2017-05-07T21:52:18.860Z,11.90
2017-05-07T21:54:48.943Z,14.68
2017-05-07T21:57:17.913Z,14.94
2017-05-07T21:59:46.829Z,13.14
2017-05-07T22:02:16.178Z,14.94
2017-05-07T22:04:45.077Z,14.14
2017-05-07T22:07:14.756Z,12.38
2017-05-07T22:09:43.665Z,13.00
2017-05-07T22:12:12.656Z,14.64
2017-05-07T22:14:41.578Z,16.40
2017-05-07T22:17:11.221Z,14.02
2017-05-07T22:19:40.185Z,15.98
2017-05-07T22:22:09.086Z,14.46
2017-05-07T22:24:38.026Z,17.50
2017-05-07T22:27:06.966Z,15.60
2017-05-07T22:29:35.882Z,14.20
2017-05-07T22:32:04.870Z,14.82
2017-05-07T22:34:33.802Z,14.70
2017-05-07T22:37:03.451Z,15.80
2017-05-07T22:39:32.367Z,20.52
2017-05-07T22:42:01.377Z,14.90
2017-05-07T22:44:30.259Z,17.68
2017-05-07T22:46:59.138Z,16.08
2017-05-07T22:49:28.126Z,16.90
2017-05-07T22:51:57.029Z,16.42
2017-05-07T22:54:25.926Z,14.12
2017-05-07T22:56:54.860Z,15.32
2017-05-07T22:59:23.778Z,16.32
2017-05-07T23:01:52.714Z,16.32
2017-05-07T23:04:21.622Z,15.32
2017-05-07T23:06:50.533Z,15.80
2017-05-07T23:09:19.680Z,14.58
2017-05-07T23:11:48.546Z,16.82
2017-05-07T23:14:17.526Z,16.08
2017-05-07T23:16:46.438Z,19.02
2017-05-07T23:19:15.367Z,16.34
2017-05-07T23:21:44.265Z,16.92
2017-05-07T23:24:13.170Z,17.38
2017-05-07T23:26:42.070Z,18.58
2017-05-07T23:29:11.010Z,16.82
2017-05-07T23:31:40.661Z,18.24
2017-05-07T23:34:09.485Z,20.70
2017-05-07T23:36:38.525Z,17.02
2017-05-07T23:39:07.430Z,17.60
2017-05-07T23:41:36.422Z,22.68
2017-05-07T23:44:05.357Z,23.34
2017-05-07T23:46:34.259Z,15.62
2017-05-07T23:49:03.175Z,16.46
2017-05-07T23:51:32.878Z,19.66
2017-05-07T23:54:02.512Z,19.42
2017-05-07T23:56:31.484Z,17.68
2017-05-07T23:59:00.418Z,17.86
